createdAt,value
2023-03-11T00:02:23.047Z,98082.41
2023-03-11T00:04:50.911Z,98089.16
2023-03-11T00:07:19.335Z,98100.84
2023-03-11T00:09:47.278Z,98123.63
2023-03-11T00:12:15.124Z,98118.19
2023-03-11T00:14:43.038Z,98127.41
2023-03-11T00:17:10.838Z,98131.19
2023-03-11T00:19:38.820Z,98142.16
2023-03-11T00:22:06.678Z,98158.44
2023-03-11T00:24:34.475Z,98165.16
2023-03-11T00:27:02.300Z,98170.25
2023-03-11T00:29:30.004Z,98174.00
2023-03-11T00:31:57.799Z,98183.44
2023-03-11T00:34:25.960Z,98191.59
2023-03-11T00:36:53.780Z,98195.38
2023-03-11T00:39:21.885Z,98200.56
2023-03-11T00:41:50.784Z,98215.00
2023-03-11T00:44:18.633Z,98227.16
2023-03-11T00:46:46.945Z,98236.59
2023-03-11T00:49:14.695Z,98253.09
2023-03-11T00:51:45.566Z,98243.53
2023-03-11T00:54:13.449Z,98258.16
2023-03-11T00:56:41.800Z,98265.50
2023-03-11T00:59:09.541Z,98265.91
2023-03-11T01:01:37.533Z,98265.34
2023-03-11T01:04:05.307Z,98287.66
2023-03-11T01:06:44.895Z,98287.28
2023-03-11T01:09:13.236Z,98293.78
2023-03-11T01:11:41.222Z,98307.13
2023-03-11T01:14:08.991Z,98311.72
2023-03-11T01:16:36.945Z,98324.69
2023-03-11T01:19:05.066Z,98327.41
2023-03-11T01:21:32.920Z,98355.63
2023-03-11T01:24:00.661Z,98351.47
2023-03-11T01:26:29.000Z,98354.41
2023-03-11T01:28:56.905Z,98366.94
2023-03-11T01:31:24.816Z,98378.00
2023-03-11T01:33:52.563Z,98379.91
2023-03-11T01:36:20.715Z,98386.38
2023-03-11T01:38:48.568Z,98391.81
2023-03-11T01:41:16.839Z,98390.16
2023-03-11T01:43:44.673Z,98405.38
2023-03-11T01:46:12.941Z,98409.78
2023-03-11T01:48:42.261Z,98433.81
2023-03-11T01:51:10.135Z,98426.13
2023-03-11T01:53:38.000Z,98453.06
2023-03-11T01:56:05.786Z,98454.72
2023-03-11T01:58:33.815Z,98447.63
2023-03-11T02:01:01.574Z,98476.66
2023-03-11T02:03:29.534Z,98480.66
2023-03-11T02:05:57.523Z,98486.09
2023-03-11T02:08:25.449Z,98496.09
2023-03-11T02:10:53.185Z,98513.22
2023-03-11T02:13:21.021Z,98519.50
2023-03-11T02:15:48.980Z,98530.34
2023-03-11T02:18:18.637Z,98538.50
2023-03-11T02:20:46.462Z,98528.25
2023-03-11T02:23:14.291Z,98542.88
2023-03-11T02:25:43.114Z,98556.47
2023-03-11T02:28:11.249Z,98586.16
2023-03-11T02:30:39.199Z,98566.31
2023-03-11T02:33:06.944Z,98586.78
2023-03-11T02:35:35.076Z,98595.31
2023-03-11T02:38:02.855Z,98609.56
2023-03-11T02:40:31.030Z,98613.13
2023-03-11T02:42:58.849Z,98621.69
2023-03-11T02:45:26.723Z,98622.72
2023-03-11T02:47:54.602Z,98630.25
2023-03-11T02:50:22.502Z,98647.19
2023-03-11T02:52:53.174Z,98643.41
2023-03-11T02:55:21.341Z,98667.84
2023-03-11T02:57:49.567Z,98679.97
2023-03-11T03:00:17.562Z,98682.69
2023-03-11T03:02:45.368Z,98682.91
2023-03-11T03:05:13.193Z,98688.09
2023-03-11T03:07:41.072Z,98705.44
2023-03-11T03:10:08.948Z,98706.28
2023-03-11T03:12:36.862Z,98718.78
2023-03-11T03:15:04.650Z,98725.69
2023-03-11T03:17:32.410Z,98721.09
2023-03-11T03:20:00.373Z,98740.09
2023-03-11T03:22:29.466Z,98753.47
2023-03-11T03:24:57.201Z,98767.88
2023-03-11T03:27:24.982Z,98761.38
2023-03-11T03:29:52.717Z,98774.31
2023-03-11T03:32:20.502Z,98787.28
2023-03-11T03:34:48.380Z,98793.97
2023-03-11T03:37:16.178Z,98797.72
2023-03-11T03:39:43.957Z,98806.91
2023-03-11T03:42:11.906Z,98815.28
2023-03-11T03:44:39.632Z,98821.94
2023-03-11T03:47:07.586Z,98820.91
2023-03-11T03:49:35.482Z,98831.75
2023-03-11T03:52:03.235Z,98841.34
2023-03-11T03:54:31.072Z,98839.91
2023-03-11T03:56:58.775Z,98846.81
2023-03-11T03:59:26.482Z,98857.44
2023-03-11T04:01:54.345Z,98859.53
2023-03-11T04:04:22.205Z,98876.22
2023-03-11T04:06:50.267Z,98869.13
2023-03-11T04:09:18.006Z,98882.06
2023-03-11T04:11:45.762Z,98886.25
2023-03-11T04:14:13.529Z,98900.03
2023-03-11T04:16:41.333Z,98892.31
2023-03-11T04:19:09.071Z,98897.09
2023-03-11T04:21:36.846Z,98896.66
2023-03-11T04:24:04.602Z,98903.16
2023-03-11T04:26:32.358Z,98917.16
2023-03-11T04:29:00.327Z,98911.09
2023-03-11T04:31:28.225Z,98915.91
2023-03-11T04:33:55.994Z,98923.81
2023-03-11T04:36:23.713Z,98936.13
2023-03-11T04:38:51.459Z,98950.53
2023-03-11T04:41:19.201Z,98951.38
2023-03-11T04:43:46.939Z,98962.63
2023-03-11T04:46:14.719Z,98960.97
2023-03-11T04:48:42.514Z,98952.63
2023-03-11T04:51:10.616Z,98971.22
2023-03-11T04:53:38.382Z,98977.28
2023-03-11T04:56:06.266Z,98970.16
2023-03-11T04:58:34.074Z,98981.03
2023-03-11T05:01:01.814Z,98985.63
2023-03-11T05:03:29.662Z,98983.94
2023-03-11T05:05:57.686Z,98993.56
2023-03-11T05:08:25.529Z,99001.06
2023-03-11T05:10:53.960Z,98991.88
2023-03-11T05:13:21.844Z,99008.38
2023-03-11T05:15:49.670Z,99010.66
2023-03-11T05:18:17.453Z,99014.84
2023-03-11T05:20:45.200Z,99019.44
2023-03-11T05:23:12.954Z,99017.97
2023-03-11T05:25:40.784Z,99022.75
2023-03-11T05:28:08.570Z,99028.59
2023-03-11T05:30:36.462Z,99030.25
2023-03-11T05:33:04.897Z,99044.88
2023-03-11T05:35:32.726Z,99039.03
2023-03-11T05:38:00.490Z,99047.38
2023-03-11T05:40:28.270Z,99056.50
2023-03-11T05:42:56.009Z,99057.34
2023-03-11T05:45:23.763Z,99062.34
2023-03-11T05:47:51.868Z,99071.97
2023-03-11T05:50:19.608Z,99065.72
2023-03-11T05:52:47.352Z,99066.97
2023-03-11T05:55:15.149Z,99079.28
2023-03-11T05:57:42.914Z,99083.69
2023-03-11T06:00:12.469Z,99079.09
2023-03-11T06:02:40.751Z,99084.94
2023-03-11T06:05:09.326Z,99093.31
2023-03-11T06:07:38.569Z,99102.50
2023-03-11T06:10:06.427Z,99104.75
2023-03-11T06:12:35.769Z,99115.66
2023-03-11T06:15:03.552Z,99127.22
2023-03-11T06:17:31.282Z,99119.84
2023-03-11T06:19:59.010Z,99124.25
2023-03-11T06:22:26.988Z,99129.03
2023-03-11T06:24:54.788Z,99127.66
2023-03-11T06:27:22.552Z,99133.44
2023-03-11T06:29:50.312Z,99140.91
2023-03-11T06:32:18.094Z,99145.97
2023-03-11T06:34:45.831Z,99147.06
2023-03-11T06:37:13.642Z,99151.91
2023-03-11T06:39:41.414Z,99160.72
2023-03-11T06:42:09.242Z,99159.88
2023-03-11T06:44:37.062Z,99174.13
2023-03-11T06:47:04.825Z,99185.44
2023-03-11T06:49:32.890Z,99190.72
2023-03-11T06:52:00.695Z,99196.56
2023-03-11T06:54:28.436Z,99193.44
2023-03-11T06:56:56.324Z,99200.13
2023-03-11T06:59:24.003Z,99204.53
2023-03-11T07:01:51.928Z,99204.56
2023-03-11T07:04:19.814Z,99208.78
2023-03-11T07:06:47.647Z,99213.38
2023-03-11T07:09:15.381Z,99217.97
2023-03-11T07:11:43.143Z,99227.00
2023-03-11T07:14:10.893Z,99234.94
2023-03-11T07:16:38.828Z,99246.25
2023-03-11T07:19:06.686Z,99243.13
2023-03-11T07:21:34.482Z,99247.88
2023-03-11T07:24:02.559Z,99262.53
2023-03-11T07:26:30.345Z,99265.88
2023-03-11T07:28:58.191Z,99263.75
2023-03-11T07:31:26.053Z,99270.25
2023-03-11T07:33:54.013Z,99279.22
2023-03-11T07:36:21.974Z,99280.28
2023-03-11T07:38:50.520Z,99280.28
2023-03-11T07:41:18.441Z,99286.97
2023-03-11T07:43:46.226Z,99291.34
2023-03-11T07:46:14.216Z,99299.91
2023-03-11T07:48:42.133Z,99303.41
2023-03-11T07:51:10.021Z,99304.88
2023-03-11T07:53:37.896Z,99310.47
2023-03-11T07:56:05.615Z,99314.81
2023-03-11T07:58:33.440Z,99330.94
2023-03-11T08:01:03.382Z,99327.59
2023-03-11T08:03:31.142Z,99334.91
2023-03-11T08:05:58.947Z,99342.00
2023-03-11T08:08:26.749Z,99344.94
2023-03-11T08:10:54.536Z,99340.97
2023-03-11T08:13:22.314Z,99359.53
2023-03-11T08:15:50.100Z,99358.06
2023-03-11T08:18:17.903Z,99363.31
2023-03-11T08:20:46.006Z,99372.50
2023-03-11T08:23:13.773Z,99376.06
2023-03-11T08:25:41.614Z,99387.34
2023-03-11T08:28:09.868Z,99380.66
2023-03-11T08:30:37.837Z,99383.59
2023-03-11T08:33:06.057Z,99391.03
2023-03-11T08:35:33.857Z,99388.41
2023-03-11T08:38:01.724Z,99388.47
2023-03-11T08:40:29.510Z,99396.06
2023-03-11T08:42:57.369Z,99399.25
2023-03-11T08:45:25.162Z,99412.88
2023-03-11T08:47:53.093Z,99409.09
2023-03-11T08:50:20.857Z,99413.25
2023-03-11T08:52:48.731Z,99417.00
2023-03-11T08:55:17.619Z,99418.25
2023-03-11T08:57:45.445Z,99421.16
2023-03-11T09:00:13.391Z,99425.34
2023-03-11T09:02:41.823Z,99438.72
2023-03-11T09:05:09.643Z,99445.41
2023-03-11T09:07:37.369Z,99443.25
2023-03-11T09:10:05.108Z,99443.88
2023-03-11T09:12:33.033Z,99456.63
2023-03-11T09:15:00.863Z,99455.38
2023-03-11T09:17:28.662Z,99463.63
2023-03-11T09:19:56.563Z,99471.94
2023-03-11T09:22:24.380Z,99469.81
2023-03-11T09:24:52.287Z,99465.00
2023-03-11T09:27:20.010Z,99464.06
2023-03-11T09:29:47.709Z,99475.34
2023-03-11T09:32:15.516Z,99476.59
2023-03-11T09:34:43.289Z,99479.97
2023-03-11T09:37:11.094Z,99487.28
2023-03-11T09:39:38.846Z,99488.06
2023-03-11T09:42:06.634Z,99485.56
2023-03-11T09:44:34.425Z,99494.56
2023-03-11T09:47:02.201Z,99493.00
2023-03-11T09:49:29.943Z,99506.00
2023-03-11T09:51:57.762Z,99507.47
2023-03-11T09:54:25.529Z,99508.25
2023-03-11T09:56:53.285Z,99517.63
2023-03-11T09:59:21.666Z,99518.69
2023-03-11T10:01:49.400Z,99521.41
2023-03-11T10:04:17.251Z,99518.47
2023-03-11T10:06:45.077Z,99530.38
2023-03-11T10:09:12.878Z,99534.97
2023-03-11T10:11:44.720Z,99541.66
2023-03-11T10:14:12.675Z,99539.13
2023-03-11T10:16:40.470Z,99544.16
2023-03-11T10:19:08.589Z,99551.88
2023-03-11T10:21:36.361Z,99552.28
2023-03-11T10:24:04.307Z,99555.81
2023-03-11T10:26:32.946Z,99556.00
2023-03-11T10:29:00.664Z,99554.97
2023-03-11T10:31:28.439Z,99560.59
2023-03-11T10:33:56.225Z,99558.09
2023-03-11T10:36:24.613Z,99561.41
2023-03-11T10:38:52.381Z,99573.31
2023-03-11T10:41:20.209Z,99574.16
2023-03-11T10:43:49.510Z,99579.75
2023-03-11T10:46:17.396Z,99576.88
2023-03-11T10:48:45.143Z,99574.31
2023-03-11T10:51:12.871Z,99578.78
2023-03-11T10:53:40.642Z,99577.56
2023-03-11T10:56:08.439Z,99584.22
2023-03-11T10:58:36.197Z,99583.97
2023-03-11T11:01:04.066Z,99579.84
2023-03-11T11:03:31.882Z,99590.88
2023-03-11T11:05:59.917Z,99593.56
2023-03-11T11:08:27.840Z,99591.84
2023-03-11T11:10:56.100Z,99588.31
2023-03-11T11:13:23.929Z,99599.81
2023-03-11T11:15:51.641Z,99597.75
2023-03-11T11:18:19.419Z,99596.28
2023-03-11T11:20:47.197Z,99602.94
2023-03-11T11:23:14.986Z,99607.06
2023-03-11T11:25:42.757Z,99602.94
2023-03-11T11:28:10.582Z,99613.81
2023-03-11T11:30:38.329Z,99613.81
2023-03-11T11:33:06.173Z,99615.22
2023-03-11T11:35:33.924Z,99624.00
2023-03-11T11:38:01.671Z,99622.97
2023-03-11T11:40:29.397Z,99621.31
2023-03-11T11:42:57.338Z,99621.31
2023-03-11T11:45:25.081Z,99624.41
2023-03-11T11:47:52.772Z,99619.59
2023-03-11T11:50:20.524Z,99625.25
2023-03-11T11:52:48.300Z,99630.84
2023-03-11T11:55:17.036Z,99618.97
2023-03-11T11:57:44.730Z,99621.44
2023-03-11T12:00:14.360Z,99622.25
2023-03-11T12:02:42.116Z,99627.03
2023-03-11T12:05:09.859Z,99627.78
2023-03-11T12:07:38.513Z,99617.75
2023-03-11T12:10:21.439Z,99618.25
2023-03-11T12:12:50.725Z,99612.22
2023-03-11T12:15:18.436Z,99616.63
2023-03-11T12:17:46.269Z,99618.75
2023-03-11T12:20:13.996Z,99610.44
2023-03-11T12:22:41.755Z,99619.59
2023-03-11T12:25:09.505Z,99628.13
2023-03-11T12:27:37.547Z,99630.03
2023-03-11T12:30:05.290Z,99636.69
2023-03-11T12:32:33.162Z,99632.91
2023-03-11T12:35:01.024Z,99638.00
2023-03-11T12:37:28.784Z,99636.75
2023-03-11T12:39:56.590Z,99628.91
2023-03-11T12:42:25.143Z,99636.25
2023-03-11T12:44:53.935Z,99644.56
2023-03-11T12:47:21.693Z,99638.19
2023-03-11T12:49:49.586Z,99632.75
2023-03-11T12:52:17.378Z,99641.16
2023-03-11T12:54:45.141Z,99644.53
2023-03-11T12:57:12.893Z,99645.31
2023-03-11T12:59:40.660Z,99649.06
2023-03-11T13:02:08.368Z,99653.44
2023-03-11T13:04:36.108Z,99657.34
2023-03-11T13:07:04.305Z,99666.63
2023-03-11T13:09:32.064Z,99662.69
2023-03-11T13:11:59.776Z,99645.97
2023-03-11T13:14:27.573Z,99654.41
2023-03-11T13:16:55.358Z,99654.44
2023-03-11T13:19:23.643Z,99651.50
2023-03-11T13:21:51.438Z,99664.72
2023-03-11T13:24:19.248Z,99667.44
2023-03-11T13:26:47.040Z,99666.16
2023-03-11T13:29:14.764Z,99674.34
2023-03-11T13:31:42.516Z,99679.78
2023-03-11T13:34:11.092Z,99683.53
2023-03-11T13:36:38.835Z,99685.00
2023-03-11T13:39:07.083Z,99682.03
2023-03-11T13:41:34.879Z,99686.19
2023-03-11T13:44:02.673Z,99688.69
2023-03-11T13:46:30.458Z,99692.44
2023-03-11T13:48:58.192Z,99688.00
2023-03-11T13:51:25.976Z,99697.84
2023-03-11T13:53:53.717Z,99699.47
2023-03-11T13:56:21.500Z,99695.47
2023-03-11T13:58:49.312Z,99699.00
2023-03-11T14:01:17.108Z,99704.00
2023-03-11T14:03:44.866Z,99701.91
2023-03-11T14:06:12.678Z,99708.97
2023-03-11T14:08:40.546Z,99705.16
2023-03-11T14:11:08.311Z,99704.91
2023-03-11T14:13:36.041Z,99704.44
2023-03-11T14:16:03.941Z,99712.16
2023-03-11T14:18:31.786Z,99714.63
2023-03-11T14:20:59.805Z,99712.75
2023-03-11T14:23:27.538Z,99723.44
2023-03-11T14:25:55.276Z,99718.84
2023-03-11T14:28:23.062Z,99719.75
2023-03-11T14:30:50.790Z,99731.78
2023-03-11T14:33:18.485Z,99729.19
2023-03-11T14:35:46.287Z,99721.59
2023-03-11T14:38:14.014Z,99723.69
2023-03-11T14:40:42.070Z,99734.09
2023-03-11T14:43:09.867Z,99736.94
2023-03-11T14:45:37.653Z,99732.66
2023-03-11T14:48:05.426Z,99745.09
2023-03-11T14:50:35.118Z,99748.75
2023-03-11T14:53:04.703Z,99749.88
2023-03-11T14:55:32.719Z,99752.47
2023-03-11T14:58:00.595Z,99757.31
2023-03-11T15:00:28.367Z,99754.84
2023-03-11T15:02:56.193Z,99761.75
2023-03-11T15:05:23.981Z,99763.50
2023-03-11T15:07:51.725Z,99770.56
2023-03-11T15:10:19.467Z,99761.03
2023-03-11T15:12:47.226Z,99766.72
2023-03-11T15:15:15.013Z,99765.25
2023-03-11T15:17:44.448Z,99775.22
2023-03-11T15:20:12.441Z,99775.22
2023-03-11T15:22:40.191Z,99778.72
2023-03-11T15:25:07.962Z,99778.22
2023-03-11T15:27:35.773Z,99772.16
2023-03-11T15:30:03.858Z,99775.66
2023-03-11T15:32:31.617Z,99772.22
2023-03-11T15:34:59.346Z,99777.00
2023-03-11T15:37:27.255Z,99777.09
2023-03-11T15:39:55.127Z,99773.44
2023-03-11T15:42:23.037Z,99771.78
2023-03-11T15:44:50.857Z,99772.72
2023-03-11T15:47:18.659Z,99776.06
2023-03-11T15:49:46.394Z,99774.22
2023-03-11T15:52:14.202Z,99778.44
2023-03-11T15:54:44.203Z,99778.31
2023-03-11T15:57:15.131Z,99780.16
2023-03-11T15:59:43.493Z,99778.88
2023-03-11T16:02:11.364Z,99794.72
2023-03-11T16:04:39.161Z,99790.97
2023-03-11T16:07:08.750Z,99791.94
2023-03-11T16:09:36.552Z,99797.38
2023-03-11T16:12:04.282Z,99799.59
2023-03-11T16:14:32.027Z,99808.63
2023-03-11T16:16:59.916Z,99806.75
2023-03-11T16:19:27.665Z,99815.28
2023-03-11T16:21:55.479Z,99813.78
2023-03-11T16:24:23.255Z,99816.69
2023-03-11T16:26:52.269Z,99814.78
2023-03-11T16:29:20.162Z,99821.44
2023-03-11T16:31:49.244Z,99826.25
2023-03-11T16:34:17.022Z,99826.63
2023-03-11T16:36:44.790Z,99835.16
2023-03-11T16:39:14.544Z,99833.28
2023-03-11T16:41:43.027Z,99833.66
2023-03-11T16:44:10.761Z,99845.75
2023-03-11T16:46:38.697Z,99849.66
2023-03-11T16:49:06.555Z,99850.16
2023-03-11T16:51:34.578Z,99853.22
2023-03-11T16:54:02.336Z,99852.00
2023-03-11T16:56:30.140Z,99850.38
2023-03-11T16:58:57.920Z,99852.13
2023-03-11T17:01:25.653Z,99854.63
2023-03-11T17:03:53.427Z,99853.50
2023-03-11T17:06:21.173Z,99859.72
2023-03-11T17:08:49.331Z,99866.06
2023-03-11T17:11:17.283Z,99862.28
2023-03-11T17:13:45.055Z,99870.22
2023-03-11T17:16:12.918Z,99875.06
2023-03-11T17:18:40.776Z,99884.66
2023-03-11T17:21:08.620Z,99886.72
2023-03-11T17:26:04.961Z,99890.38
2023-03-11T17:28:32.726Z,99889.25
2023-03-11T17:31:00.698Z,99896.81
2023-03-11T17:33:28.499Z,99898.44
2023-03-11T17:35:56.341Z,99904.00
2023-03-11T17:38:24.175Z,99911.06
2023-03-11T17:40:51.920Z,99908.69
2023-03-11T17:43:19.677Z,99911.16
2023-03-11T17:45:47.483Z,99916.69
2023-03-11T17:48:15.294Z,99914.75
2023-03-11T17:50:43.017Z,99919.28
2023-03-11T17:53:10.854Z,99912.94
2023-03-11T17:55:39.049Z,99918.31
2023-03-11T17:58:06.852Z,99924.13
2023-03-11T18:00:34.676Z,99928.88
2023-03-11T18:03:02.458Z,99926.72
2023-03-11T18:05:30.590Z,99926.28
2023-03-11T18:07:58.593Z,99931.53
2023-03-11T18:10:26.362Z,99937.22
2023-03-11T18:12:54.103Z,99939.09
2023-03-11T18:15:22.691Z,99941.88
2023-03-11T18:17:50.526Z,99945.72
2023-03-11T18:20:18.315Z,99954.34
2023-03-11T18:22:47.089Z,99947.22
2023-03-11T18:25:15.130Z,99954.06
2023-03-11T18:27:43.533Z,99950.97
2023-03-11T18:30:11.852Z,99953.19
2023-03-11T18:32:39.676Z,99951.69
2023-03-11T18:35:07.498Z,99952.91
2023-03-11T18:37:35.465Z,99949.06
2023-03-11T18:40:03.622Z,99954.78
2023-03-11T18:42:32.262Z,99944.09
2023-03-11T18:45:00.029Z,99952.19
2023-03-11T18:47:27.828Z,99951.81
2023-03-11T18:49:55.977Z,99952.16
2023-03-11T18:52:23.764Z,99952.72
2023-03-11T18:54:51.519Z,99957.41
2023-03-11T18:57:19.380Z,99952.34
2023-03-11T18:59:47.413Z,99962.56
2023-03-11T19:02:15.272Z,99953.28
2023-03-11T19:04:43.472Z,99960.38
2023-03-11T19:07:11.233Z,99961.72
2023-03-11T19:09:39.033Z,99961.16
2023-03-11T19:12:06.959Z,99959.09
2023-03-11T19:14:34.737Z,99963.44
2023-03-11T19:17:02.548Z,99963.44
2023-03-11T19:19:31.634Z,99961.28
2023-03-11T19:21:59.468Z,99963.09
2023-03-11T19:24:29.080Z,99960.75
2023-03-11T19:26:57.169Z,99963.78
2023-03-11T19:29:26.890Z,99967.72
2023-03-11T19:31:54.743Z,99962.66
2023-03-11T19:34:22.613Z,99968.63
2023-03-11T19:36:50.513Z,99974.00
2023-03-11T19:39:18.307Z,99973.34
2023-03-11T19:41:46.234Z,99974.19
2023-03-11T19:44:14.157Z,99976.84
2023-03-11T19:46:42.109Z,99977.41
2023-03-11T19:49:10.297Z,99981.06
2023-03-11T19:51:49.216Z,99975.50
2023-03-11T19:54:18.003Z,99977.88
2023-03-11T19:56:46.001Z,99977.09
2023-03-11T19:59:13.841Z,99976.63
2023-03-11T20:01:42.470Z,99975.78
2023-03-11T20:04:10.826Z,99977.84
2023-03-11T20:06:38.932Z,99978.19
2023-03-11T20:09:07.073Z,99977.91
2023-03-11T20:11:34.851Z,99982.53
2023-03-11T20:14:02.715Z,99977.59
2023-03-11T20:16:30.609Z,99979.38
2023-03-11T20:18:58.454Z,99990.22
2023-03-11T20:21:26.218Z,99990.19
2023-03-11T20:23:54.223Z,99990.91
2023-03-11T20:26:22.118Z,99994.81
2023-03-11T20:28:49.959Z,99997.25
2023-03-11T20:31:17.847Z,99999.47
2023-03-11T20:33:45.799Z,99991.97
2023-03-11T20:36:14.203Z,99995.53
2023-03-11T20:38:42.140Z,99992.41
2023-03-11T20:41:10.319Z,99984.63
2023-03-11T20:43:38.240Z,99987.34
2023-03-11T20:46:06.213Z,99992.13
2023-03-11T20:48:34.032Z,99991.44
2023-03-11T20:51:02.810Z,99992.34
2023-03-11T20:53:30.722Z,99990.13
2023-03-11T20:55:58.722Z,99991.81
2023-03-11T20:58:26.696Z,99990.13
2023-03-11T21:00:54.761Z,99992.91
2023-03-11T21:03:22.688Z,99990.91
2023-03-11T21:05:50.519Z,99995.97
2023-03-11T21:08:18.608Z,99993.94
2023-03-11T21:10:46.462Z,99986.78
2023-03-11T21:13:14.505Z,99984.75
2023-03-11T21:15:42.447Z,99998.16
2023-03-11T21:18:10.686Z,99994.94
2023-03-11T21:20:38.475Z,99990.72
2023-03-11T21:23:06.948Z,99997.19
2023-03-11T21:25:35.372Z,100003.50
2023-03-11T21:28:03.128Z,100008.75
2023-03-11T21:30:31.006Z,100010.91
2023-03-11T21:32:59.024Z,100010.44
2023-03-11T21:35:27.105Z,100015.41
2023-03-11T21:37:55.227Z,100006.09
2023-03-11T21:40:23.208Z,100004.94
2023-03-11T21:42:51.433Z,99999.16
2023-03-11T21:45:19.358Z,100000.69
2023-03-11T21:47:47.122Z,99998.31
2023-03-11T21:50:14.914Z,99998.50
2023-03-11T21:52:42.984Z,99993.44
2023-03-11T21:55:10.806Z,99997.53
2023-03-11T21:57:38.685Z,100002.78
2023-03-11T22:00:08.053Z,100003.09
2023-03-11T22:02:36.025Z,100008.50
2023-03-11T22:05:04.707Z,100012.22
2023-03-11T22:07:32.563Z,100014.09
2023-03-11T22:10:00.686Z,100013.94
2023-03-11T22:12:28.775Z,100018.03
2023-03-11T22:14:56.482Z,100020.72
2023-03-11T22:17:24.362Z,100020.56
2023-03-11T22:19:52.221Z,100023.81
2023-03-11T22:22:20.203Z,100011.13
2023-03-11T22:24:48.048Z,100017.88
2023-03-11T22:27:15.830Z,100011.25
2023-03-11T22:29:44.348Z,100009.56
2023-03-11T22:32:12.113Z,100008.41
2023-03-11T22:34:40.001Z,100016.19
2023-03-11T22:37:07.831Z,100016.56
2023-03-11T22:39:35.632Z,100008.28
2023-03-11T22:42:03.559Z,100011.13
2023-03-11T22:44:31.310Z,100011.50
2023-03-11T22:46:59.536Z,100008.47
2023-03-11T22:49:27.298Z,100011.53
2023-03-11T22:51:55.060Z,100018.97
2023-03-11T22:54:23.132Z,100017.13
2023-03-11T22:56:50.871Z,100018.13
2023-03-11T22:59:18.622Z,100017.25
2023-03-11T23:01:46.353Z,100026.41
2023-03-11T23:04:14.306Z,100025.75
2023-03-11T23:06:42.057Z,100030.84
2023-03-11T23:09:09.758Z,100026.41
2023-03-11T23:11:37.506Z,100033.72
2023-03-11T23:14:05.329Z,100032.38
2023-03-11T23:16:33.400Z,100023.03
2023-03-11T23:19:01.285Z,100032.19
2023-03-11T23:21:29.077Z,100026.44
2023-03-11T23:24:07.460Z,100033.22
2023-03-11T23:26:35.260Z,100038.94
2023-03-11T23:29:03.122Z,100035.41
2023-03-11T23:31:30.953Z,100041.19
2023-03-11T23:33:58.997Z,100038.63
2023-03-11T23:36:30.366Z,100042.84
2023-03-11T23:38:58.427Z,100045.75
2023-03-11T23:41:26.477Z,100042.88
2023-03-11T23:43:54.270Z,100044.41
2023-03-11T23:46:22.163Z,100052.22
2023-03-11T23:48:49.963Z,100053.53
2023-03-11T23:51:17.911Z,100052.88
2023-03-11T23:53:45.836Z,100049.16
2023-03-11T23:56:13.615Z,100051.88
2023-03-11T23:58:41.393Z,100058.81
